Toone, TN

9:24 AM CST en Diciembre 18, 2014 (GMT -0600)
McKellar-Sipes Regional | Change Station
CLOSE
Current Station
Aeropuerto
Location: Jackson,
Altura: 433 ft
Estaciones meteorológicas cercanas

Alt 433 ft 35.59 °N, 88.92 °W | Updated 31 minutes ago

Nublado
Nublado
38 ° F
Sensación térmica 36 ° F
N
4
Viento Variable Viento desde ENE

Hoy
Alta -- | Baja -- ° F
--% Posibilidad de precipitaciones
Ayer
Alta -- | Baja -- ° F
Precip. -- pul
6:59 AM 4:45 PM
Creciente menguante, 14% visible
Presión 30.26 pul
Visibilidad 5.0 Millas
Nubes Muy nublado 600 ft
Nublado 5000 ft
Vientos helados 36 ° F
Punto de rocío 34 ° F
Humedad 86%
Precipitaciones 0.22 pul
Espesor de la nieve No disponible.
UV 0 de una escala de 12
Polen .10 de una escala de 12
Calidad del aire No disponible.
Flu Activity No disponible.
METAR KMKL 181453Z 07003KT 5SM BR BKN006 OVC050 03/01 A3025 RMK AO2 UPE02 CIG 005V010 SLP247 P0000 60000 T00330011 53007

More Conditions Fewer Conditions

Presión 30.26 pul
Visibilidad 5.0 Millas
Nubes Muy nublado 600 ft
Nublado 5000 ft
Vientos helados 36 ° F
Punto de rocío 34 ° F
Humedad 86%
Precipitaciones 0.22 pul
Espesor de la nieve No disponible.
UV 0 de una escala de 12
Polen .10 de una escala de 12
Calidad del aire No disponible.
Flu Activity No disponible.
METAR KMKL 181453Z 07003KT 5SM BR BKN006 OVC050 03/01 A3025 RMK AO2 UPE02 CIG 005V010 SLP247 P0000 60000 T00330011 53007

More Conditions Fewer Conditions

10-Day Weather Forecast

Almanac

Astronomía

Dec. 18, 2014 Salida Puesta
Hora real
Crepúsculo civil
Crepúsculo náutico
Crepúsculo astronómico
Luna
Horas de luz
Horas de luz
Tomorrow will be .
, % of the Moon is Illuminated

Extremos de hoy

Máximos del estado Bajos del estado

Community

WunderPhotos

Upload Photos

1,778,947 ¡fotos cargadas!

WunderBlogs® & News

Nearby

Calidad del aire

  Calidad del aire Índice AQ Contaminante
Not available.

Grosos de nieve

Estación Profundido Altura

Actividad de terremotos

Ciudad Distance Mag. Tiempo y dato
Magnitud mínima muestra es 2,5.

Temperaturas de aguas costeras

Lugar Temperatura

Estaciones meteorológicas cercanas